sensor_id;sensor_type;location;lat;lon;timestamp;pressure;altitude;pressure_sealevel;temperature;humidity
80382;BME280;69692;55.820;37.490;2023-07-08T00:00:18;99617.03;;;20.01;83.77
80382;BME280;69692;55.820;37.490;2023-07-08T00:02:48;99614.81;;;20.03;83.06
80382;BME280;69692;55.820;37.490;2023-07-08T00:05:17;99610.16;;;20.04;83.87
80382;BME280;69692;55.820;37.490;2023-07-08T00:07:43;99615.94;;;20.02;83.43
80382;BME280;69692;55.820;37.490;2023-07-08T00:10:18;99615.94;;;20.02;82.93
80382;BME280;69692;55.820;37.490;2023-07-08T00:12:45;99619.47;;;20.03;82.77
80382;BME280;69692;55.820;37.490;2023-07-08T00:15:12;99615.13;;;20.02;83.28
80382;BME280;69692;55.820;37.490;2023-07-08T00:17:38;99625.00;;;19.98;83.84
80382;BME280;69692;55.820;37.490;2023-07-08T00:23:12;99635.94;;;19.98;83.53
80382;BME280;69692;55.820;37.490;2023-07-08T00:25:39;99629.06;;;20.00;83.34
80382;BME280;69692;55.820;37.490;2023-07-08T00:28:09;99627.66;;;20.03;82.82
80382;BME280;69692;55.820;37.490;2023-07-08T00:30:36;99628.47;;;20.03;82.76
80382;BME280;69692;55.820;37.490;2023-07-08T00:33:02;99627.66;;;20.03;82.84
80382;BME280;69692;55.820;37.490;2023-07-08T00:35:37;99629.59;;;20.02;82.64
80382;BME280;69692;55.820;37.490;2023-07-08T00:38:24;99640.81;;;20.01;82.26
80382;BME280;69692;55.820;37.490;2023-07-08T00:43:39;99636.84;;;19.88;83.43
80382;BME280;69692;55.820;37.490;2023-07-08T00:48:59;99643.25;;;19.78;83.48
80382;BME280;69692;55.820;37.490;2023-07-08T00:51:25;99644.06;;;19.79;82.75
80382;BME280;69692;55.820;37.490;2023-07-08T00:53:51;99635.59;;;19.80;83.02
80382;BME280;69692;55.820;37.490;2023-07-08T00:59:06;99636.28;;;19.91;83.03
80382;BME280;69692;55.820;37.490;2023-07-08T01:01:36;99632.19;;;20.12;81.90
80382;BME280;69692;55.820;37.490;2023-07-08T01:04:10;99638.75;;;20.11;81.10
80382;BME280;69692;55.820;37.490;2023-07-08T01:06:39;99639.91;;;20.05;80.86
80382;BME280;69692;55.820;37.490;2023-07-08T01:09:08;99638.06;;;20.62;79.50
80382;BME280;69692;55.820;37.490;2023-07-08T01:11:37;99642.81;;;21.22;77.44
80382;BME280;69692;55.820;37.490;2023-07-08T01:14:08;99637.63;;;21.53;75.13
80382;BME280;69692;55.820;37.490;2023-07-08T01:16:35;99645.41;;;21.87;74.16
80382;BME280;69692;55.820;37.490;2023-07-08T01:19:03;99632.03;;;21.85;73.68
80382;BME280;69692;55.820;37.490;2023-07-08T01:24:00;99644.72;;;21.54;75.05
80382;BME280;69692;55.820;37.490;2023-07-08T01:26:27;99640.59;;;21.24;75.74
80382;BME280;69692;55.820;37.490;2023-07-08T01:28:55;99648.50;;;20.93;77.03
80382;BME280;69692;55.820;37.490;2023-07-08T01:31:22;99648.38;;;20.65;78.21
80382;BME280;69692;55.820;37.490;2023-07-08T01:33:49;99642.19;;;20.41;79.20
80382;BME280;69692;55.820;37.490;2023-07-08T01:36:17;99648.41;;;20.22;79.22
80382;BME280;69692;55.820;37.490;2023-07-08T01:38:43;99650.19;;;20.13;80.54
80382;BME280;69692;55.820;37.490;2023-07-08T01:41:16;99659.84;;;20.06;80.94
80382;BME280;69692;55.820;37.490;2023-07-08T01:43:43;99651.72;;;20.01;80.77
80382;BME280;69692;55.820;37.490;2023-07-08T01:46:23;99664.56;;;20.00;80.96
80382;BME280;69692;55.820;37.490;2023-07-08T01:48:52;99659.19;;;19.95;81.65
80382;BME280;69692;55.820;37.490;2023-07-08T01:51:21;99642.53;;;19.91;82.00
80382;BME280;69692;55.820;37.490;2023-07-08T01:53:47;99653.16;;;19.93;81.38
80382;BME280;69692;55.820;37.490;2023-07-08T01:56:14;99656.28;;;19.86;81.67
80382;BME280;69692;55.820;37.490;2023-07-08T01:58:41;99651.41;;;19.83;82.30
80382;BME280;69692;55.820;37.490;2023-07-08T02:01:07;99653.34;;;19.78;82.38
80382;BME280;69692;55.820;37.490;2023-07-08T02:03:33;99651.50;;;19.73;82.81
80382;BME280;69692;55.820;37.490;2023-07-08T02:06:00;99653.94;;;19.75;83.30
80382;BME280;69692;55.820;37.490;2023-07-08T02:08:25;99649.59;;;19.74;82.53
80382;BME280;69692;55.820;37.490;2023-07-08T02:10:55;99653.50;;;19.68;82.92
80382;BME280;69692;55.820;37.490;2023-07-08T02:13:22;99653.53;;;19.62;83.01
80382;BME280;69692;55.820;37.490;2023-07-08T02:15:49;99655.16;;;19.63;83.76
80382;BME280;69692;55.820;37.490;2023-07-08T02:18:16;99642.56;;;19.68;83.88
80382;BME280;69692;55.820;37.490;2023-07-08T02:20:45;99653.44;;;19.73;83.18
80382;BME280;69692;55.820;37.490;2023-07-08T02:23:11;99644.34;;;19.77;82.73
80382;BME280;69692;55.820;37.490;2023-07-08T02:25:37;99640.25;;;19.80;82.44
80382;BME280;69692;55.820;37.490;2023-07-08T02:28:03;99635.59;;;19.80;81.81
80382;BME280;69692;55.820;37.490;2023-07-08T02:30:29;99636.94;;;19.83;81.96
80382;BME280;69692;55.820;37.490;2023-07-08T02:32:55;99643.72;;;19.85;81.68
80382;BME280;69692;55.820;37.490;2023-07-08T02:35:26;99632.00;;;19.85;81.32
80382;BME280;69692;55.820;37.490;2023-07-08T02:37:53;99630.59;;;19.87;81.09
80382;BME280;69692;55.820;37.490;2023-07-08T02:40:19;99623.28;;;19.83;81.34
80382;BME280;69692;55.820;37.490;2023-07-08T02:42:45;99631.19;;;19.84;80.99
80382;BME280;69692;55.820;37.490;2023-07-08T02:45:12;99638.25;;;19.85;81.40
80382;BME280;69692;55.820;37.490;2023-07-08T02:47:38;99637.97;;;19.87;81.85
80382;BME280;69692;55.820;37.490;2023-07-08T02:50:05;99642.31;;;19.88;81.59
80382;BME280;69692;55.820;37.490;2023-07-08T02:52:31;99640.47;;;19.83;82.33
80382;BME280;69692;55.820;37.490;2023-07-08T02:54:57;99646.97;;;19.87;81.90
80382;BME280;69692;55.820;37.490;2023-07-08T02:57:23;99648.31;;;19.90;82.10
80382;BME280;69692;55.820;37.490;2023-07-08T02:59:48;99642.53;;;19.91;81.68
80382;BME280;69692;55.820;37.490;2023-07-08T03:02:14;99638.19;;;19.90;81.21
80382;BME280;69692;55.820;37.490;2023-07-08T03:04:40;99628.16;;;19.86;82.09
80382;BME280;69692;55.820;37.490;2023-07-08T03:07:07;99629.19;;;19.90;82.10
80382;BME280;69692;55.820;37.490;2023-07-08T03:09:40;99632.44;;;19.92;81.48
80382;BME280;69692;55.820;37.490;2023-07-08T03:12:09;99630.38;;;19.84;81.52
80382;BME280;69692;55.820;37.490;2023-07-08T03:14:36;99621.94;;;19.80;81.75
80382;BME280;69692;55.820;37.490;2023-07-08T03:17:03;99623.88;;;19.80;81.78
80382;BME280;69692;55.820;37.490;2023-07-08T03:19:29;99631.25;;;19.79;81.71
80382;BME280;69692;55.820;37.490;2023-07-08T03:21:56;99625.03;;;19.74;81.26
80382;BME280;69692;55.820;37.490;2023-07-08T03:24:22;99623.41;;;19.73;81.79
80382;BME280;69692;55.820;37.490;2023-07-08T03:26:48;99623.09;;;19.74;81.63
80382;BME280;69692;55.820;37.490;2023-07-08T03:29:21;99627.69;;;19.79;81.32
80382;BME280;69692;55.820;37.490;2023-07-08T03:31:47;99632.50;;;19.87;81.11
80382;BME280;69692;55.820;37.490;2023-07-08T03:34:15;99624.78;;;19.94;81.45
80382;BME280;69692;55.820;37.490;2023-07-08T03:36:47;99616.31;;;19.95;81.65
80382;BME280;69692;55.820;37.490;2023-07-08T03:39:19;99612.69;;;20.00;81.44
80382;BME280;69692;55.820;37.490;2023-07-08T03:41:45;99620.78;;;20.05;82.07
80382;BME280;69692;55.820;37.490;2023-07-08T03:44:12;99620.19;;;20.08;80.01
80382;BME280;69692;55.820;37.490;2023-07-08T03:46:39;99624.50;;;20.14;79.31
80382;BME280;69692;55.820;37.490;2023-07-08T03:49:09;99629.97;;;20.14;79.28
80382;BME280;69692;55.820;37.490;2023-07-08T03:51:38;99629.69;;;20.16;78.75
80382;BME280;69692;55.820;37.490;2023-07-08T03:54:06;99631.81;;;20.19;79.25
80382;BME280;69692;55.820;37.490;2023-07-08T03:56:35;99628.78;;;20.20;79.57
80382;BME280;69692;55.820;37.490;2023-07-08T03:59:02;99641.41;;;20.16;80.17
80382;BME280;69692;55.820;37.490;2023-07-08T04:01:29;99638.91;;;20.20;79.75
80382;BME280;69692;55.820;37.490;2023-07-08T04:03:56;99645.78;;;20.17;78.37
80382;BME280;69692;55.820;37.490;2023-07-08T04:06:23;99643.47;;;20.06;79.66
80382;BME280;69692;55.820;37.490;2023-07-08T04:08:50;99641.09;;;19.99;79.68
80382;BME280;69692;55.820;37.490;2023-07-08T04:11:21;99635.03;;;20.02;79.63
80382;BME280;69692;55.820;37.490;2023-07-08T04:13:48;99636.06;;;20.06;79.49
80382;BME280;69692;55.820;37.490;2023-07-08T04:16:28;99637.47;;;20.04;78.88
80382;BME280;69692;55.820;37.490;2023-07-08T04:18:56;99628.25;;;20.00;78.76
80382;BME280;69692;55.820;37.490;2023-07-08T04:21:23;99637.84;;;19.97;78.35
80382;BME280;69692;55.820;37.490;2023-07-08T04:23:51;99639.25;;;19.94;78.45
80382;BME280;69692;55.820;37.490;2023-07-08T04:26:17;99654.25;;;19.97;77.97
80382;BME280;69692;55.820;37.490;2023-07-08T04:28:45;99655.06;;;19.98;78.28
80382;BME280;69692;55.820;37.490;2023-07-08T04:31:11;99662.66;;;20.01;78.08
80382;BME280;69692;55.820;37.490;2023-07-08T04:33:37;99651.72;;;20.01;77.50
80382;BME280;69692;55.820;37.490;2023-07-08T04:36:03;99659.63;;;20.02;77.83
80382;BME280;69692;55.820;37.490;2023-07-08T04:38:30;99663.47;;;20.01;77.57
80382;BME280;69692;55.820;37.490;2023-07-08T04:40:57;99660.66;;;20.06;77.44
80382;BME280;69692;55.820;37.490;2023-07-08T04:43:23;99663.91;;;20.08;77.86
80382;BME280;69692;55.820;37.490;2023-07-08T04:45:55;99673.47;;;20.11;77.44
80382;BME280;69692;55.820;37.490;2023-07-08T04:48:22;99664.50;;;20.05;77.21
80382;BME280;69692;55.820;37.490;2023-07-08T04:50:51;99673.78;;;20.04;76.40
80382;BME280;69692;55.820;37.490;2023-07-08T04:53:18;99666.56;;;19.94;77.12
80382;BME280;69692;55.820;37.490;2023-07-08T04:55:54;99673.41;;;19.92;77.45
80382;BME280;69692;55.820;37.490;2023-07-08T04:58:21;99676.41;;;19.90;77.58
80382;BME280;69692;55.820;37.490;2023-07-08T05:00:47;99663.28;;;19.92;78.29
80382;BME280;69692;55.820;37.490;2023-07-08T05:03:13;99660.81;;;19.96;77.82
80382;BME280;69692;55.820;37.490;2023-07-08T05:05:39;99659.09;;;20.00;77.30
80382;BME280;69692;55.820;37.490;2023-07-08T05:08:06;99660.44;;;20.03;77.88
80382;BME280;69692;55.820;37.490;2023-07-08T05:10:32;99650.84;;;20.05;77.69
80382;BME280;69692;55.820;37.490;2023-07-08T05:12:58;99656.25;;;20.10;77.43
80382;BME280;69692;55.820;37.490;2023-07-08T05:15:23;99651.34;;;20.07;78.63
80382;BME280;69692;55.820;37.490;2023-07-08T05:17:50;99653.06;;;20.03;77.08
80382;BME280;69692;55.820;37.490;2023-07-08T05:20:18;99653.56;;;20.05;76.64
80382;BME280;69692;55.820;37.490;2023-07-08T05:22:45;99649.72;;;20.06;77.74
80382;BME280;69692;55.820;37.490;2023-07-08T05:25:12;99651.66;;;20.06;76.73
80382;BME280;69692;55.820;37.490;2023-07-08T05:27:38;99663.38;;;20.06;76.52
80382;BME280;69692;55.820;37.490;2023-07-08T05:30:06;99655.28;;;20.01;76.79
80382;BME280;69692;55.820;37.490;2023-07-08T05:32:34;99663.16;;;20.03;76.62
80382;BME280;69692;55.820;37.490;2023-07-08T05:35:00;99654.16;;;20.02;76.35
80382;BME280;69692;55.820;37.490;2023-07-08T05:37:29;99654.63;;;20.09;76.43
80382;BME280;69692;55.820;37.490;2023-07-08T05:39:55;99653.97;;;20.17;76.71
80382;BME280;69692;55.820;37.490;2023-07-08T05:42:22;99655.28;;;20.20;77.32
80382;BME280;69692;55.820;37.490;2023-07-08T05:44:49;99653.06;;;20.22;76.85
80382;BME280;69692;55.820;37.490;2023-07-08T05:47:18;99663.44;;;20.25;76.03
80382;BME280;69692;55.820;37.490;2023-07-08T05:49:44;99675.69;;;20.28;75.93
80382;BME280;69692;55.820;37.490;2023-07-08T05:52:10;99671.38;;;20.21;75.31
80382;BME280;69692;55.820;37.490;2023-07-08T05:54:38;99671.09;;;20.23;75.94
80382;BME280;69692;55.820;37.490;2023-07-08T05:57:05;99662.38;;;20.21;75.52
80382;BME280;69692;55.820;37.490;2023-07-08T05:59:33;99666.50;;;20.61;74.67
80382;BME280;69692;55.820;37.490;2023-07-08T06:01:59;99649.19;;;20.84;72.97
80382;BME280;69692;55.820;37.490;2023-07-08T06:04:26;99646.22;;;21.32;72.12
80382;BME280;69692;55.820;37.490;2023-07-08T06:06:53;99642.28;;;21.80;70.22
80382;BME280;69692;55.820;37.490;2023-07-08T06:09:19;99641.06;;;21.86;69.41
80382;BME280;69692;55.820;37.490;2023-07-08T06:11:45;99640.47;;;22.02;68.66
80382;BME280;69692;55.820;37.490;2023-07-08T06:14:11;99642.09;;;22.17;68.34
80382;BME280;69692;55.820;37.490;2023-07-08T06:16:37;99645.06;;;22.07;67.19
80382;BME280;69692;55.820;37.490;2023-07-08T06:19:03;99649.28;;;21.72;68.58
80382;BME280;69692;55.820;37.490;2023-07-08T06:21:29;99658.59;;;21.57;69.65
80382;BME280;69692;55.820;37.490;2023-07-08T06:23:56;99648.34;;;21.35;70.05
80382;BME280;69692;55.820;37.490;2023-07-08T06:26:21;99642.66;;;21.32;70.50
80382;BME280;69692;55.820;37.490;2023-07-08T06:28:47;99645.91;;;21.34;70.63
80382;BME280;69692;55.820;37.490;2023-07-08T06:31:13;99643.97;;;21.34;70.52
80382;BME280;69692;55.820;37.490;2023-07-08T06:33:39;99648.56;;;21.53;69.61
80382;BME280;69692;55.820;37.490;2023-07-08T06:36:04;99653.75;;;21.68;69.21
80382;BME280;69692;55.820;37.490;2023-07-08T06:38:32;99653.41;;;21.42;69.20
80382;BME280;69692;55.820;37.490;2023-07-08T06:40:58;99649.91;;;21.23;70.25
80382;BME280;69692;55.820;37.490;2023-07-08T06:43:24;99642.59;;;21.18;71.43
80382;BME280;69692;55.820;37.490;2023-07-08T06:45:55;99636.63;;;21.16;70.72
80382;BME280;69692;55.820;37.490;2023-07-08T06:48:21;99641.34;;;21.10;70.79
80382;BME280;69692;55.820;37.490;2023-07-08T06:50:47;99636.16;;;20.95;70.86
80382;BME280;69692;55.820;37.490;2023-07-08T06:53:17;99638.25;;;20.84;71.23
80382;BME280;69692;55.820;37.490;2023-07-08T06:55:46;99629.25;;;20.65;71.92
80382;BME280;69692;55.820;37.490;2023-07-08T06:58:12;99635.41;;;20.57;72.19
80382;BME280;69692;55.820;37.490;2023-07-08T07:00:42;99634.47;;;20.80;71.42
80382;BME280;69692;55.820;37.490;2023-07-08T07:03:08;99633.66;;;20.80;71.32
80382;BME280;69692;55.820;37.490;2023-07-08T07:05:34;99634.50;;;20.62;71.14
80382;BME280;69692;55.820;37.490;2023-07-08T07:08:00;99638.88;;;20.44;70.63
80382;BME280;69692;55.820;37.490;2023-07-08T07:10:25;99646.88;;;20.35;71.24
80382;BME280;69692;55.820;37.490;2023-07-08T07:12:51;99649.47;;;20.27;72.16
80382;BME280;69692;55.820;37.490;2023-07-08T07:15:17;99649.19;;;20.28;71.73
80382;BME280;69692;55.820;37.490;2023-07-08T07:17:43;99641.59;;;20.25;72.19
80382;BME280;69692;55.820;37.490;2023-07-08T07:20:09;99648.72;;;20.21;72.25
80382;BME280;69692;55.820;37.490;2023-07-08T07:22:35;99644.38;;;20.20;72.27
80382;BME280;69692;55.820;37.490;2023-07-08T07:25:01;99643.78;;;20.23;72.31
80382;BME280;69692;55.820;37.490;2023-07-08T07:27:29;99637.75;;;20.26;73.02
80382;BME280;69692;55.820;37.490;2023-07-08T07:29:55;99620.16;;;20.32;72.84
80382;BME280;69692;55.820;37.490;2023-07-08T07:32:25;99632.91;;;20.37;74.17
80382;BME280;69692;55.820;37.490;2023-07-08T07:34:52;99631.78;;;20.43;72.83
80382;BME280;69692;55.820;37.490;2023-07-08T07:37:21;99633.13;;;20.45;72.34
80382;BME280;69692;55.820;37.490;2023-07-08T07:39:46;99631.91;;;20.51;72.97
80382;BME280;69692;55.820;37.490;2023-07-08T07:42:14;99635.47;;;20.52;72.10
80382;BME280;69692;55.820;37.490;2023-07-08T07:44:40;99632.59;;;20.62;71.64
80382;BME280;69692;55.820;37.490;2023-07-08T07:47:09;99629.25;;;20.65;71.76
80382;BME280;69692;55.820;37.490;2023-07-08T07:49:36;99624.59;;;20.66;72.00
80382;BME280;69692;55.820;37.490;2023-07-08T07:52:02;99635.53;;;20.66;72.36
80382;BME280;69692;55.820;37.490;2023-07-08T07:54:28;99632.50;;;20.67;72.65
80382;BME280;69692;55.820;37.490;2023-07-08T07:56:54;99646.97;;;20.68;72.25
80382;BME280;69692;55.820;37.490;2023-07-08T07:59:20;99639.38;;;20.65;71.48
80382;BME280;69692;55.820;37.490;2023-07-08T08:01:47;99648.09;;;20.67;70.73
80382;BME280;69692;55.820;37.490;2023-07-08T08:04:12;99655.19;;;20.68;70.66
80382;BME280;69692;55.820;37.490;2023-07-08T08:06:38;99654.59;;;20.71;71.15
80382;BME280;69692;55.820;37.490;2023-07-08T08:09:06;99652.19;;;20.69;72.04
80382;BME280;69692;55.820;37.490;2023-07-08T08:11:32;99649.13;;;20.71;71.43
80382;BME280;69692;55.820;37.490;2023-07-08T08:14:00;99653.50;;;20.72;71.30
80382;BME280;69692;55.820;37.490;2023-07-08T08:16:27;99661.09;;;20.75;70.81
80382;BME280;69692;55.820;37.490;2023-07-08T08:18:52;99663.75;;;20.80;70.29
80382;BME280;69692;55.820;37.490;2023-07-08T08:21:18;99654.72;;;20.79;69.96
80382;BME280;69692;55.820;37.490;2023-07-08T08:23:44;99660.13;;;20.84;69.56
80382;BME280;69692;55.820;37.490;2023-07-08T08:26:10;99668.56;;;20.88;69.45
80382;BME280;69692;55.820;37.490;2023-07-08T08:28:35;99674.31;;;20.87;69.20
80382;BME280;69692;55.820;37.490;2023-07-08T08:31:01;99667.75;;;20.88;69.06
80382;BME280;69692;55.820;37.490;2023-07-08T08:33:27;99674.75;;;20.94;68.34
80382;BME280;69692;55.820;37.490;2023-07-08T08:35:53;99680.72;;;20.96;68.57
80382;BME280;69692;55.820;37.490;2023-07-08T08:38:19;99667.13;;;21.23;79.88
80382;BME280;69692;55.820;37.490;2023-07-08T08:40:45;99663.38;;;21.52;67.35
80382;BME280;69692;55.820;37.490;2023-07-08T08:43:30;99657.38;;;21.50;66.43
80382;BME280;69692;55.820;37.490;2023-07-08T08:46:30;99666.59;;;21.40;65.25
80382;BME280;69692;55.820;37.490;2023-07-08T08:51:33;99670.13;;;21.40;65.89
80382;BME280;69692;55.820;37.490;2023-07-08T08:53:59;99676.22;;;21.37;64.89
80382;BME280;69692;55.820;37.490;2023-07-08T08:56:34;99676.75;;;21.53;65.35
80382;BME280;69692;55.820;37.490;2023-07-08T09:01:59;99667.44;;;21.54;64.13
80382;BME280;69692;55.820;37.490;2023-07-08T09:04:33;99667.66;;;21.58;63.97
80382;BME280;69692;55.820;37.490;2023-07-08T09:07:07;99669.06;;;21.69;64.44
80382;BME280;69692;55.820;37.490;2023-07-08T09:12:03;99669.19;;;21.91;64.47
80382;BME280;69692;55.820;37.490;2023-07-08T09:14:33;99669.06;;;21.96;63.86
80382;BME280;69692;55.820;37.490;2023-07-08T09:19:41;99662.38;;;21.75;64.06
80382;BME280;69692;55.820;37.490;2023-07-08T09:24:58;99657.59;;;21.81;64.83
80382;BME280;69692;55.820;37.490;2023-07-08T09:27:26;99657.41;;;21.77;64.18
80382;BME280;69692;55.820;37.490;2023-07-08T09:29:52;99659.16;;;21.73;63.34
80382;BME280;69692;55.820;37.490;2023-07-08T09:32:28;99661.88;;;21.73;64.17
80382;BME280;69692;55.820;37.490;2023-07-08T09:35:02;99662.16;;;21.85;62.93
80382;BME280;69692;55.820;37.490;2023-07-08T09:37:34;99662.28;;;21.94;61.90
80382;BME280;69692;55.820;37.490;2023-07-08T09:40:15;99658.13;;;22.10;61.87
80382;BME280;69692;55.820;37.490;2023-07-08T09:42:42;99658.22;;;22.19;61.71
80382;BME280;69692;55.820;37.490;2023-07-08T09:45:16;99653.56;;;22.55;61.24
80382;BME280;69692;55.820;37.490;2023-07-08T09:47:45;99652.66;;;23.05;58.21
80382;BME280;69692;55.820;37.490;2023-07-08T09:50:26;99662.66;;;23.01;57.65
80382;BME280;69692;55.820;37.490;2023-07-08T09:52:55;99662.00;;;22.95;57.61
80382;BME280;69692;55.820;37.490;2023-07-08T09:55:23;99655.78;;;22.89;58.87
80382;BME280;69692;55.820;37.490;2023-07-08T09:57:51;99651.63;;;22.92;58.49
80382;BME280;69692;55.820;37.490;2023-07-08T10:00:26;99657.41;;;22.90;57.96
80382;BME280;69692;55.820;37.490;2023-07-08T10:02:58;99660.78;;;23.10;58.33
80382;BME280;69692;55.820;37.490;2023-07-08T10:05:34;99648.25;;;23.48;57.64
80382;BME280;69692;55.820;37.490;2023-07-08T10:08:10;99661.56;;;23.33;56.66
80382;BME280;69692;55.820;37.490;2023-07-08T10:10:38;99660.91;;;23.27;58.25
80382;BME280;69692;55.820;37.490;2023-07-08T10:13:57;99657.28;;;23.71;56.79
80382;BME280;69692;55.820;37.490;2023-07-08T10:18:43;99647.84;;;24.21;55.44
80382;BME280;69692;55.820;37.490;2023-07-08T10:27:40;99642.09;;;24.48;51.04
80382;BME280;69692;55.820;37.490;2023-07-08T10:29:55;99642.25;;;24.78;50.91
80382;BME280;69692;55.820;37.490;2023-07-08T10:32:36;99645.66;;;24.92;50.81
80382;BME280;69692;55.820;37.490;2023-07-08T10:35:11;99643.06;;;24.87;49.21
80382;BME280;69692;55.820;37.490;2023-07-08T10:40:38;99651.00;;;24.36;51.22
80382;BME280;69692;55.820;37.490;2023-07-08T10:46:16;99663.59;;;23.80;53.10
80382;BME280;69692;55.820;37.490;2023-07-08T10:54:44;99653.41;;;23.50;54.72
80382;BME280;69692;55.820;37.490;2023-07-08T11:05:46;99649.59;;;23.29;55.03
80382;BME280;69692;55.820;37.490;2023-07-08T11:08:21;99640.56;;;23.28;55.74
80382;BME280;69692;55.820;37.490;2023-07-08T11:13:50;99650.22;;;23.26;55.39
80382;BME280;69692;55.820;37.490;2023-07-08T11:16:23;99647.91;;;23.19;55.84
80382;BME280;69692;55.820;37.490;2023-07-08T11:18:54;99659.63;;;23.33;55.80
80382;BME280;69692;55.820;37.490;2023-07-08T11:21:25;99651.19;;;23.52;56.01
80382;BME280;69692;55.820;37.490;2023-07-08T11:24:00;99666.41;;;23.36;54.07
80382;BME280;69692;55.820;37.490;2023-07-08T11:26:50;99668.75;;;23.20;55.40
80382;BME280;69692;55.820;37.490;2023-07-08T11:29:29;99659.84;;;23.14;52.38
80382;BME280;69692;55.820;37.490;2023-07-08T11:31:57;99666.09;;;23.06;52.70
80382;BME280;69692;55.820;37.490;2023-07-08T11:34:24;99667.28;;;23.14;53.38
80382;BME280;69692;55.820;37.490;2023-07-08T11:36:51;99667.84;;;23.25;53.06
80382;BME280;69692;55.820;37.490;2023-07-08T11:42:20;99660.75;;;23.32;53.36
80382;BME280;69692;55.820;37.490;2023-07-08T11:44:54;99662.84;;;23.27;54.52
80382;BME280;69692;55.820;37.490;2023-07-08T11:47:26;99670.19;;;23.17;54.97
80382;BME280;69692;55.820;37.490;2023-07-08T11:49:57;99654.22;;;23.19;53.90
80382;BME280;69692;55.820;37.490;2023-07-08T11:52:24;99659.84;;;23.45;53.32
80382;BME280;69692;55.820;37.490;2023-07-08T11:54:57;99644.34;;;23.41;52.16
80382;BME280;69692;55.820;37.490;2023-07-08T11:57:29;99655.34;;;23.49;52.85
80382;BME280;69692;55.820;37.490;2023-07-08T12:00:18;99659.69;;;23.42;53.48
80382;BME280;69692;55.820;37.490;2023-07-08T12:02:58;99651.88;;;23.35;53.69
80382;BME280;69692;55.820;37.490;2023-07-08T12:05:31;99658.81;;;23.33;56.18
80382;BME280;69692;55.820;37.490;2023-07-08T12:07:57;99657.19;;;23.32;54.45
80382;BME280;69692;55.820;37.490;2023-07-08T12:10:28;99650.78;;;23.36;55.16
80382;BME280;69692;55.820;37.490;2023-07-08T12:12:57;99651.28;;;23.38;54.17
80382;BME280;69692;55.820;37.490;2023-07-08T12:15:25;99659.84;;;23.37;54.36
80382;BME280;69692;55.820;37.490;2023-07-08T12:17:53;99655.91;;;23.60;52.57
80382;BME280;69692;55.820;37.490;2023-07-08T12:20:27;99657.38;;;23.58;53.13
80382;BME280;69692;55.820;37.490;2023-07-08T12:22:54;99654.75;;;23.53;54.45
80382;BME280;69692;55.820;37.490;2023-07-08T12:25:22;99643.53;;;23.80;53.63
80382;BME280;69692;55.820;37.490;2023-07-08T12:27:50;99648.72;;;23.73;52.11
80382;BME280;69692;55.820;37.490;2023-07-08T12:30:16;99645.84;;;23.87;52.87
80382;BME280;69692;55.820;37.490;2023-07-08T12:32:43;99637.59;;;23.95;51.93
80382;BME280;69692;55.820;37.490;2023-07-08T12:35:33;99637.94;;;23.94;52.65
80382;BME280;69692;55.820;37.490;2023-07-08T12:38:09;99627.81;;;24.12;50.30
80382;BME280;69692;55.820;37.490;2023-07-08T12:40:40;99625.22;;;24.15;51.06
80382;BME280;69692;55.820;37.490;2023-07-08T12:43:09;99627.84;;;24.81;48.70
80382;BME280;69692;55.820;37.490;2023-07-08T12:45:36;99621.47;;;25.32;47.46
80382;BME280;69692;55.820;37.490;2023-07-08T12:48:01;99617.91;;;25.78;46.38
80382;BME280;69692;55.820;37.490;2023-07-08T12:50:28;99615.47;;;25.77;45.84
80382;BME280;69692;55.820;37.490;2023-07-08T12:52:53;99619.88;;;25.99;46.11
80382;BME280;69692;55.820;37.490;2023-07-08T12:55:19;99618.78;;;26.21;46.53
80382;BME280;69692;55.820;37.490;2023-07-08T12:57:47;99618.34;;;25.89;46.17
80382;BME280;69692;55.820;37.490;2023-07-08T13:00:18;99620.22;;;26.18;44.88
80382;BME280;69692;55.820;37.490;2023-07-08T13:02:47;99624.75;;;25.64;44.83
80382;BME280;69692;55.820;37.490;2023-07-08T13:05:15;99621.19;;;25.08;45.62
80382;BME280;69692;55.820;37.490;2023-07-08T13:07:42;99624.13;;;24.77;47.04
80382;BME280;69692;55.820;37.490;2023-07-08T13:10:18;99631.09;;;24.65;49.90
80382;BME280;69692;55.820;37.490;2023-07-08T13:12:48;99628.34;;;24.39;48.83
80382;BME280;69692;55.820;37.490;2023-07-08T13:15:21;99626.06;;;24.67;51.47
80382;BME280;69692;55.820;37.490;2023-07-08T13:17:49;99631.25;;;24.52;48.02
80382;BME280;69692;55.820;37.490;2023-07-08T13:20:15;99622.03;;;24.48;47.36
80382;BME280;69692;55.820;37.490;2023-07-08T13:22:43;99623.00;;;24.52;50.76
80382;BME280;69692;55.820;37.490;2023-07-08T13:25:16;99620.09;;;24.74;50.58
80382;BME280;69692;55.820;37.490;2023-07-08T13:27:42;99621.63;;;25.27;49.31
80382;BME280;69692;55.820;37.490;2023-07-08T13:30:19;99608.34;;;25.29;48.84
80382;BME280;69692;55.820;37.490;2023-07-08T13:32:54;99612.56;;;25.26;45.25
80382;BME280;69692;55.820;37.490;2023-07-08T13:35:37;99610.84;;;25.05;46.98
80382;BME280;69692;55.820;37.490;2023-07-08T13:38:03;99602.28;;;24.89;45.04
80382;BME280;69692;55.820;37.490;2023-07-08T13:40:30;99605.94;;;25.19;45.00
80382;BME280;69692;55.820;37.490;2023-07-08T13:42:56;99596.63;;;25.41;44.53
80382;BME280;69692;55.820;37.490;2023-07-08T13:45:27;99603.00;;;25.33;45.46
80382;BME280;69692;55.820;37.490;2023-07-08T13:48:10;99603.53;;;25.17;45.58
80382;BME280;69692;55.820;37.490;2023-07-08T13:50:44;99599.81;;;24.96;44.67
80382;BME280;69692;55.820;37.490;2023-07-08T13:53:47;99605.38;;;24.70;46.23
80382;BME280;69692;55.820;37.490;2023-07-08T13:56:25;99603.94;;;24.55;44.80
80382;BME280;69692;55.820;37.490;2023-07-08T13:58:59;99612.50;;;24.45;47.30
80382;BME280;69692;55.820;37.490;2023-07-08T14:01:26;99612.59;;;24.23;48.12